Pernille — 5BNZ2 — position and weather

sailwx.info

Track history (hours):
 
Tides and Currents Weather Stations Pressure Air Temp Water Temp Dewpoint Dewpoint Depression Visibility Wind Speed Wind Dir Waves Ship Positions

Pernille

Last reported at 2017-Dec-10 03:56 UTC. Time now 2017-Dec-12 23:44 UTC.
Position N 59°46' E 024°18'.

Length 83 m; draft 5.3 m.

Type: Cargo ship. MMSI: 212662000.

Date/timePositionNaut miles runAvg speedWind from/ knotsBaromVisibWave heightAir tempDewpointWater temp
2017-Dec-10 03:56N 59°46' E 024°18'4 9.0
2017-Dec-10 03:31N 59°47' E 024°25'4 8.9
2017-Dec-10 03:00N 59°48' E 024°34'510.0
2017-Dec-10 02:30N 59°49' E 024°43'4 7.7
2017-Dec-10 02:01N 59°50' E 024°51'6 8.5
2017-Dec-10 01:17N 59°52' E 025°02'3 8.8
2017-Dec-10 00:58N 59°53' E 025°08'4 9.0
2017-Dec-10 00:30N 59°54' E 025°16'30 9.2
2017-Dec-09 21:12N 60°06' E 026°12'2 9.2
2017-Dec-09 21:00N 60°06' E 026°15'4 8.8
2017-Dec-09 20:30N 60°10' E 026°20'5 9.3
2017-Dec-09 20:01N 60°14' E 026°25'4 7.3
2017-Dec-09 19:31N 60°18' E 026°24'5 9.9
2017-Dec-09 19:01N 60°22' E 026°18'3 6.2
2017-Dec-09 18:28N 60°25' E 026°15'0 0.0
2017-Dec-09 17:49N 60°25' E 026°15'0 0.0
2017-Dec-09 17:29N 60°25' E 026°15'0 0.0
2017-Dec-09 16:58N 60°25' E 026°15'0 0.0
2017-Dec-09 16:18N 60°25' E 026°15'0 0.0
2017-Dec-09 15:59N 60°25' E 026°15'0 0.0
2017-Dec-09 15:30N 60°25' E 026°15'0 0.0
2017-Dec-09 15:00N 60°25' E 026°15'0 0.0
2017-Dec-09 14:30N 60°25' E 026°15'0 0.0
2017-Dec-09 14:00N 60°25' E 026°15'0 0.0
2017-Dec-09 13:30N 60°25' E 026°15'0 0.0
2017-Dec-09 13:00N 60°25' E 026°15'0 0.0
2017-Dec-09 12:30N 60°25' E 026°15'0 0.0
2017-Dec-09 12:00N 60°25' E 026°15'0 0.0
2017-Dec-09 11:30N 60°25' E 026°15'0 0.0
2017-Dec-09 11:00N 60°25' E 026°15'0 0.0
2017-Dec-09 10:30N 60°25' E 026°15'0 0.0
2017-Dec-09 10:00N 60°25' E 026°15'0 0.0
2017-Dec-09 09:30N 60°25' E 026°15'0 0.0
2017-Dec-09 08:58N 60°25' E 026°15'0 0.0
2017-Dec-09 08:25N 60°25' E 026°15'0 0.0
2017-Dec-09 07:59N 60°25' E 026°15'0 0.0
2017-Dec-09 07:30N 60°25' E 026°15'0 0.0
2017-Dec-09 06:58N 60°25' E 026°15'0 0.0
2017-Dec-09 06:29N 60°25' E 026°15'0 0.0
2017-Dec-09 05:59N 60°25' E 026°15'0 0.0
2017-Dec-09 05:30N 60°25' E 026°15'0 0.0
2017-Dec-09 04:58N 60°25' E 026°15'0 0.0
2017-Dec-09 04:28N 60°25' E 026°15'0 0.0
2017-Dec-09 04:00N 60°25' E 026°15'0 0.0
2017-Dec-09 03:30N 60°25' E 026°15'0 0.0
2017-Dec-09 03:00N 60°25' E 026°15'0 0.0
2017-Dec-09 02:30N 60°25' E 026°15'0 0.0
2017-Dec-09 02:00N 60°25' E 026°15'0 0.0
2017-Dec-09 01:30N 60°25' E 026°15'0 0.0
2017-Dec-09 01:00N 60°25' E 026°15'0 0.0
2017-Dec-09 00:24N 60°25' E 026°15'0 0.0
2017-Dec-09 00:00N 60°25' E 026°15'0 0.0
2017-Dec-08 23:30N 60°25' E 026°15'0 0.0
2017-Dec-08 23:00N 60°25' E 026°15'0 0.0
2017-Dec-08 22:30N 60°25' E 026°15'0 0.0
2017-Dec-08 22:00N 60°25' E 026°15'0 0.0
2017-Dec-08 21:30N 60°25' E 026°15'0 0.0
2017-Dec-08 20:54N 60°25' E 026°15'0 0.0
2017-Dec-08 20:27N 60°25' E 026°15'0 0.0
2017-Dec-08 20:00N 60°25' E 026°15'0 0.0
2017-Dec-08 19:30N 60°25' E 026°15'0 0.0
2017-Dec-08 19:00N 60°25' E 026°15'0 0.0
2017-Dec-08 18:30N 60°25' E 026°15'0 0.0
2017-Dec-08 17:54N 60°25' E 026°15'0 0.0
2017-Dec-08 17:30N 60°25' E 026°15'0 0.0
2017-Dec-08 16:54N 60°25' E 026°15'0 0.0
2017-Dec-08 16:30N 60°25' E 026°15'0 0.0
2017-Dec-08 16:00N 60°25' E 026°15'0 0.0
2017-Dec-08 15:30N 60°25' E 026°15'0 0.0
2017-Dec-08 15:00N 60°25' E 026°15'0 0.0
2017-Dec-08 14:30N 60°25' E 026°15'0 0.0
2017-Dec-08 14:00N 60°25' E 026°15'0 0.0
2017-Dec-08 13:30N 60°25' E 026°15'0 0.0
2017-Dec-08 13:00N 60°25' E 026°15'0 0.0
2017-Dec-08 12:30N 60°25' E 026°15'0 0.0
2017-Dec-08 12:00N 60°25' E 026°15'0 0.0
2017-Dec-08 11:30N 60°25' E 026°15'0 0.0
2017-Dec-08 11:00N 60°25' E 026°15'0 0.0
2017-Dec-08 10:30N 60°25' E 026°15'0 0.0
2017-Dec-08 10:00N 60°25' E 026°15'0 0.0
2017-Dec-08 09:30N 60°25' E 026°15'0 0.0
2017-Dec-08 08:58N 60°25' E 026°15'0 0.0
2017-Dec-08 08:30N 60°25' E 026°15'3 5.5
2017-Dec-08 08:01N 60°22' E 026°18'510.6
2017-Dec-08 07:30N 60°18' E 026°24'4 7.7
2017-Dec-08 07:00N 60°14' E 026°25'612.5
2017-Dec-08 06:31N 60°08' E 026°20'510.9
2017-Dec-08 06:00N 60°03' E 026°15'2110.7
2017-Dec-08 04:01N 59°58' E 025°33'211.4
2017-Dec-08 03:52N 59°58' E 025°30'411.4
2017-Dec-08 03:30N 59°57' E 025°22'611.4
2017-Dec-08 03:01N 59°56' E 025°11'611.5
2017-Dec-08 02:30N 59°54' E 024°60'611.6
2017-Dec-08 02:00N 59°53' E 024°48'611.5
2017-Dec-08 01:30N 59°51' E 024°37'612.7
2017-Dec-08 01:00N 59°49' E 024°25'1211.3
2017-Dec-07 23:57N 59°46' E 024°02'611.8
2017-Dec-07 23:29N 59°45' E 023°52'611.8
2017-Dec-07 23:01N 59°44' E 023°41'611.8
2017-Dec-07 22:31N 59°42' E 023°30'611.6
2017-Dec-07 22:00N 59°42' E 023°18'611.4
2017-Dec-07 21:30N 59°42' E 023°07'510.6
2017-Dec-07 21:01N 59°47' E 023°00'  
2017-Dec-02 19:36N 59°46' E 023°01'3 9.5
2017-Dec-02 19:18N 59°44' E 023°05'  
2017-Nov-30 14:53N 55°58' E 016°30'410.4
2017-Nov-30 14:30N 55°57' E 016°24'510.4
2017-Nov-30 14:01N 55°54' E 016°16'510.3
2017-Nov-30 13:31N 55°52' E 016°08'510.3
2017-Nov-30 13:01N 55°49' E 015°60'510.2
2017-Nov-30 12:31N 55°47' E 015°52'510.2
2017-Nov-30 12:00N 55°44' E 015°44'510.3
2017-Nov-30 11:31N 55°41' E 015°36'510.2
2017-Nov-30 11:00N 55°39' E 015°29'510.2
2017-Nov-30 10:30N 55°36' E 015°21'510.2
2017-Nov-30 10:00N 55°33' E 015°13'610.3
2017-Nov-30 09:25N 55°30' E 015°04'410.4
2017-Nov-30 09:00N 55°28' E 014°57'510.5
2017-Nov-30 08:29N 55°26' E 014°49'610.5
2017-Nov-30 07:54N 55°23' E 014°39'410.6
2017-Nov-30 07:31N 55°20' E 014°34'510.4
2017-Nov-30 06:59N 55°15' E 014°29'610.9
2017-Nov-30 06:28N 55°11' E 014°23'610.8
2017-Nov-30 05:57N 55°06' E 014°17'  
Track history (hours):
 
Tides and Currents Weather Stations Pressure Air Temp Water Temp Dewpoint Dewpoint Depression Visibility Wind Speed Wind Dir Waves Ship Positions

Pernille

Last reported at 2017-Dec-10 03:56 UTC. Time now 2017-Dec-12 23:44 UTC.
Position N 59°46' E 024°18'.

Length 83 m; draft 5.3 m.

Type: Cargo ship. MMSI: 212662000.

Date/timePositionNaut miles runAvg speedWind from/ knotsBaromVisibWave heightAir tempDewpointWater temp
2017-Dec-10 03:56N 59°46' E 024°18'4 9.0
2017-Dec-10 03:31N 59°47' E 024°25'4 8.9
2017-Dec-10 03:00N 59°48' E 024°34'510.0
2017-Dec-10 02:30N 59°49' E 024°43'4 7.7
2017-Dec-10 02:01N 59°50' E 024°51'6 8.5
2017-Dec-10 01:17N 59°52' E 025°02'3 8.8
2017-Dec-10 00:58N 59°53' E 025°08'4 9.0
2017-Dec-10 00:30N 59°54' E 025°16'30 9.2
2017-Dec-09 21:12N 60°06' E 026°12'2 9.2
2017-Dec-09 21:00N 60°06' E 026°15'4 8.8
2017-Dec-09 20:30N 60°10' E 026°20'5 9.3
2017-Dec-09 20:01N 60°14' E 026°25'4 7.3
2017-Dec-09 19:31N 60°18' E 026°24'5 9.9
2017-Dec-09 19:01N 60°22' E 026°18'3 6.2
2017-Dec-09 18:28N 60°25' E 026°15'0 0.0
2017-Dec-09 17:49N 60°25' E 026°15'0 0.0
2017-Dec-09 17:29N 60°25' E 026°15'0 0.0
2017-Dec-09 16:58N 60°25' E 026°15'0 0.0
2017-Dec-09 16:18N 60°25' E 026°15'0 0.0
2017-Dec-09 15:59N 60°25' E 026°15'0 0.0
2017-Dec-09 15:30N 60°25' E 026°15'0 0.0
2017-Dec-09 15:00N 60°25' E 026°15'0 0.0
2017-Dec-09 14:30N 60°25' E 026°15'0 0.0
2017-Dec-09 14:00N 60°25' E 026°15'0 0.0
2017-Dec-09 13:30N 60°25' E 026°15'0 0.0
2017-Dec-09 13:00N 60°25' E 026°15'0 0.0
2017-Dec-09 12:30N 60°25' E 026°15'0 0.0
2017-Dec-09 12:00N 60°25' E 026°15'0 0.0
2017-Dec-09 11:30N 60°25' E 026°15'0 0.0
2017-Dec-09 11:00N 60°25' E 026°15'0 0.0
2017-Dec-09 10:30N 60°25' E 026°15'0 0.0
2017-Dec-09 10:00N 60°25' E 026°15'0 0.0
2017-Dec-09 09:30N 60°25' E 026°15'0 0.0
2017-Dec-09 08:58N 60°25' E 026°15'0 0.0
2017-Dec-09 08:25N 60°25' E 026°15'0 0.0
2017-Dec-09 07:59N 60°25' E 026°15'0 0.0
2017-Dec-09 07:30N 60°25' E 026°15'0 0.0
2017-Dec-09 06:58N 60°25' E 026°15'0 0.0
2017-Dec-09 06:29N 60°25' E 026°15'0 0.0
2017-Dec-09 05:59N 60°25' E 026°15'0 0.0
2017-Dec-09 05:30N 60°25' E 026°15'0 0.0
2017-Dec-09 04:58N 60°25' E 026°15'0 0.0
2017-Dec-09 04:28N 60°25' E 026°15'0 0.0
2017-Dec-09 04:00N 60°25' E 026°15'0 0.0
2017-Dec-09 03:30N 60°25' E 026°15'0 0.0
2017-Dec-09 03:00N 60°25' E 026°15'0 0.0
2017-Dec-09 02:30N 60°25' E 026°15'0 0.0
2017-Dec-09 02:00N 60°25' E 026°15'0 0.0
2017-Dec-09 01:30N 60°25' E 026°15'0 0.0
2017-Dec-09 01:00N 60°25' E 026°15'0 0.0
2017-Dec-09 00:24N 60°25' E 026°15'0 0.0
2017-Dec-09 00:00N 60°25' E 026°15'0 0.0
2017-Dec-08 23:30N 60°25' E 026°15'0 0.0
2017-Dec-08 23:00N 60°25' E 026°15'0 0.0
2017-Dec-08 22:30N 60°25' E 026°15'0 0.0
2017-Dec-08 22:00N 60°25' E 026°15'0 0.0
2017-Dec-08 21:30N 60°25' E 026°15'0 0.0
2017-Dec-08 20:54N 60°25' E 026°15'0 0.0
2017-Dec-08 20:27N 60°25' E 026°15'0 0.0
2017-Dec-08 20:00N 60°25' E 026°15'0 0.0
2017-Dec-08 19:30N 60°25' E 026°15'0 0.0
2017-Dec-08 19:00N 60°25' E 026°15'0 0.0
2017-Dec-08 18:30N 60°25' E 026°15'0 0.0
2017-Dec-08 17:54N 60°25' E 026°15'0 0.0
2017-Dec-08 17:30N 60°25' E 026°15'0 0.0
2017-Dec-08 16:54N 60°25' E 026°15'0 0.0
2017-Dec-08 16:30N 60°25' E 026°15'0 0.0
2017-Dec-08 16:00N 60°25' E 026°15'0 0.0
2017-Dec-08 15:30N 60°25' E 026°15'0 0.0
2017-Dec-08 15:00N 60°25' E 026°15'0 0.0
2017-Dec-08 14:30N 60°25' E 026°15'0 0.0
2017-Dec-08 14:00N 60°25' E 026°15'0 0.0
2017-Dec-08 13:30N 60°25' E 026°15'0 0.0
2017-Dec-08 13:00N 60°25' E 026°15'0 0.0
2017-Dec-08 12:30N 60°25' E 026°15'0 0.0
2017-Dec-08 12:00N 60°25' E 026°15'0 0.0
2017-Dec-08 11:30N 60°25' E 026°15'0 0.0
2017-Dec-08 11:00N 60°25' E 026°15'0 0.0
2017-Dec-08 10:30N 60°25' E 026°15'0 0.0
2017-Dec-08 10:00N 60°25' E 026°15'0 0.0
2017-Dec-08 09:30N 60°25' E 026°15'0 0.0
2017-Dec-08 08:58N 60°25' E 026°15'0 0.0
2017-Dec-08 08:30N 60°25' E 026°15'3 5.5
2017-Dec-08 08:01N 60°22' E 026°18'510.6
2017-Dec-08 07:30N 60°18' E 026°24'4 7.7
2017-Dec-08 07:00N 60°14' E 026°25'612.5
2017-Dec-08 06:31N 60°08' E 026°20'510.9
2017-Dec-08 06:00N 60°03' E 026°15'2110.7
2017-Dec-08 04:01N 59°58' E 025°33'211.4
2017-Dec-08 03:52N 59°58' E 025°30'411.4
2017-Dec-08 03:30N 59°57' E 025°22'611.4
2017-Dec-08 03:01N 59°56' E 025°11'611.5
2017-Dec-08 02:30N 59°54' E 024°60'611.6
2017-Dec-08 02:00N 59°53' E 024°48'611.5
2017-Dec-08 01:30N 59°51' E 024°37'612.7
2017-Dec-08 01:00N 59°49' E 024°25'1211.3
2017-Dec-07 23:57N 59°46' E 024°02'611.8
2017-Dec-07 23:29N 59°45' E 023°52'611.8
2017-Dec-07 23:01N 59°44' E 023°41'611.8
2017-Dec-07 22:31N 59°42' E 023°30'611.6
2017-Dec-07 22:00N 59°42' E 023°18'611.4
2017-Dec-07 21:30N 59°42' E 023°07'510.6
2017-Dec-07 21:01N 59°47' E 023°00'  
2017-Dec-02 19:36N 59°46' E 023°01'3 9.5
2017-Dec-02 19:18N 59°44' E 023°05'  
2017-Nov-30 14:53N 55°58' E 016°30'410.4
2017-Nov-30 14:30N 55°57' E 016°24'510.4
2017-Nov-30 14:01N 55°54' E 016°16'510.3
2017-Nov-30 13:31N 55°52' E 016°08'510.3
2017-Nov-30 13:01N 55°49' E 015°60'510.2
2017-Nov-30 12:31N 55°47' E 015°52'510.2
2017-Nov-30 12:00N 55°44' E 015°44'510.3
2017-Nov-30 11:31N 55°41' E 015°36'510.2
2017-Nov-30 11:00N 55°39' E 015°29'510.2
2017-Nov-30 10:30N 55°36' E 015°21'510.2
2017-Nov-30 10:00N 55°33' E 015°13'610.3
2017-Nov-30 09:25N 55°30' E 015°04'410.4
2017-Nov-30 09:00N 55°28' E 014°57'510.5
2017-Nov-30 08:29N 55°26' E 014°49'610.5
2017-Nov-30 07:54N 55°23' E 014°39'410.6
2017-Nov-30 07:31N 55°20' E 014°34'510.4
2017-Nov-30 06:59N 55°15' E 014°29'610.9
2017-Nov-30 06:28N 55°11' E 014°23'610.8
2017-Nov-30 05:57N 55°06' E 014°17'  

Dump ship's entire track history